createdAt,value
2016-12-29T00:00:46.426Z,20.9
2016-12-29T00:03:18.729Z,20.9
2016-12-29T00:05:51.353Z,20.9
2016-12-29T00:08:23.676Z,20.9
2016-12-29T00:10:55.993Z,20.8
2016-12-29T00:13:28.628Z,20.8
2016-12-29T00:16:00.944Z,20.8
2016-12-29T00:18:33.278Z,20.8
2016-12-29T00:21:05.596Z,20.8
2016-12-29T00:23:37.900Z,20.7
2016-12-29T00:26:10.231Z,20.7
2016-12-29T00:28:42.593Z,20.7
2016-12-29T00:31:14.911Z,20.7
2016-12-29T00:33:47.232Z,20.7
2016-12-29T00:36:19.993Z,20.7
2016-12-29T00:38:52.315Z,20.7
2016-12-29T00:41:24.651Z,20.7
2016-12-29T00:43:56.960Z,20.7
2016-12-29T00:46:29.645Z,20.7
2016-12-29T00:49:01.964Z,20.7
2016-12-29T00:51:34.387Z,20.7
2016-12-29T00:54:06.746Z,20.7
2016-12-29T00:56:39.075Z,20.7
2016-12-29T00:59:11.382Z,20.7
2016-12-29T01:01:43.718Z,20.8
2016-12-29T01:04:16.035Z,20.8
2016-12-29T01:06:48.981Z,20.8
2016-12-29T01:09:21.283Z,20.8
2016-12-29T01:11:53.599Z,20.8
2016-12-29T01:14:26.116Z,20.8
2016-12-29T01:16:58.453Z,20.8
2016-12-29T01:19:30.771Z,20.8
2016-12-29T01:22:03.105Z,20.8
2016-12-29T01:24:35.417Z,20.8
2016-12-29T01:27:07.748Z,20.8
2016-12-29T01:29:40.083Z,20.8
2016-12-29T01:32:12.428Z,20.8
2016-12-29T01:34:44.738Z,20.8
2016-12-29T01:37:17.050Z,20.8
2016-12-29T01:39:49.372Z,20.8
2016-12-29T01:42:21.688Z,20.8
2016-12-29T01:44:54.017Z,20.8
2016-12-29T01:47:26.324Z,20.8
2016-12-29T01:49:58.638Z,20.8
2016-12-29T01:52:30.944Z,20.8
2016-12-29T01:55:03.282Z,20.8
2016-12-29T01:57:35.617Z,20.8
2016-12-29T02:00:07.944Z,20.8
2016-12-29T02:02:40.256Z,20.8
2016-12-29T02:05:12.582Z,20.8
2016-12-29T02:07:44.922Z,20.8
2016-12-29T02:10:17.241Z,20.8
2016-12-29T02:12:49.573Z,20.8
2016-12-29T02:15:21.876Z,20.8
2016-12-29T02:17:54.195Z,20.8
2016-12-29T02:20:26.519Z,20.8
2016-12-29T02:22:58.828Z,20.8
2016-12-29T02:25:31.162Z,20.8
2016-12-29T02:28:03.481Z,20.8
2016-12-29T02:30:35.801Z,20.8
2016-12-29T02:33:08.128Z,20.8
2016-12-29T02:35:40.470Z,20.8
2016-12-29T02:38:12.825Z,20.8
2016-12-29T02:40:45.169Z,20.8
2016-12-29T02:43:17.503Z,20.8
2016-12-29T02:45:49.826Z,20.8
2016-12-29T02:48:22.137Z,20.8
2016-12-29T02:50:54.457Z,20.8
2016-12-29T02:53:26.785Z,20.8
2016-12-29T02:55:59.103Z,20.8
2016-12-29T02:58:31.435Z,20.8
2016-12-29T03:01:03.946Z,20.8
2016-12-29T03:03:36.264Z,20.8
2016-12-29T03:06:08.604Z,20.8
2016-12-29T03:08:40.919Z,20.8
2016-12-29T03:11:13.261Z,20.8
2016-12-29T03:13:45.781Z,20.8
2016-12-29T03:16:18.101Z,20.8
2016-12-29T03:18:50.428Z,20.8
2016-12-29T03:21:23.206Z,20.8
2016-12-29T03:23:55.518Z,20.8
2016-12-29T03:26:27.834Z,20.8
2016-12-29T03:29:00.169Z,20.8
2016-12-29T03:31:32.518Z,20.8
2016-12-29T03:34:04.871Z,20.8
2016-12-29T03:36:37.188Z,20.8
2016-12-29T03:39:09.505Z,20.8
2016-12-29T03:41:41.828Z,20.8
2016-12-29T03:44:14.144Z,20.8
2016-12-29T03:46:46.455Z,20.8
2016-12-29T03:49:18.780Z,20.8
2016-12-29T03:51:51.083Z,20.8
2016-12-29T03:54:23.395Z,20.8
2016-12-29T03:56:55.718Z,20.8
2016-12-29T03:59:28.068Z,20.8
2016-12-29T04:02:00.368Z,20.8
2016-12-29T04:04:32.709Z,20.8
2016-12-29T04:07:05.013Z,20.8
2016-12-29T04:09:37.532Z,20.8
2016-12-29T04:12:10.266Z,20.8
2016-12-29T04:14:42.603Z,20.8
2016-12-29T04:17:14.921Z,20.8
2016-12-29T04:19:47.256Z,20.8
2016-12-29T04:22:19.570Z,20.8
2016-12-29T04:24:52.086Z,20.8
2016-12-29T04:27:24.412Z,20.8
2016-12-29T04:29:56.717Z,20.8
2016-12-29T04:32:29.025Z,20.8
2016-12-29T04:35:01.356Z,20.8
2016-12-29T04:37:33.679Z,20.8
2016-12-29T04:40:06.013Z,20.8
2016-12-29T04:42:38.327Z,20.8
2016-12-29T04:45:11.243Z,20.8
2016-12-29T04:47:43.557Z,20.8
2016-12-29T04:50:15.871Z,20.8
2016-12-29T04:52:48.199Z,20.8
2016-12-29T04:55:20.521Z,20.8
2016-12-29T04:57:52.857Z,20.8
2016-12-29T05:00:25.193Z,20.8
2016-12-29T05:02:57.494Z,20.8
2016-12-29T05:05:29.828Z,20.8
2016-12-29T05:08:02.153Z,20.8
2016-12-29T05:10:34.488Z,20.8
2016-12-29T05:13:06.805Z,20.8
2016-12-29T05:15:39.123Z,20.8
2016-12-29T05:18:11.436Z,20.8
2016-12-29T05:20:43.750Z,20.8
2016-12-29T05:23:16.073Z,20.8
2016-12-29T05:25:48.382Z,20.8
2016-12-29T05:28:20.748Z,20.8
2016-12-29T05:30:53.065Z,20.8
2016-12-29T05:33:25.382Z,20.8
2016-12-29T05:35:57.718Z,20.8
2016-12-29T05:38:30.025Z,20.8
2016-12-29T05:41:02.362Z,20.8
2016-12-29T05:43:34.673Z,20.8
2016-12-29T05:46:06.996Z,20.7
2016-12-29T05:48:39.304Z,20.7
2016-12-29T05:51:11.658Z,20.7
2016-12-29T05:53:43.995Z,20.7
2016-12-29T05:56:16.328Z,20.7
2016-12-29T05:58:48.658Z,20.7
2016-12-29T06:01:20.979Z,20.7
2016-12-29T06:03:53.285Z,20.7
2016-12-29T06:06:25.610Z,20.7
2016-12-29T06:08:57.924Z,20.7
2016-12-29T06:11:30.271Z,20.7
2016-12-29T06:14:02.586Z,20.7
2016-12-29T06:16:34.916Z,20.7
2016-12-29T06:19:07.239Z,20.7
2016-12-29T06:21:39.563Z,20.7
2016-12-29T06:24:11.886Z,20.7
2016-12-29T06:26:44.193Z,20.7
2016-12-29T06:29:16.524Z,20.7
2016-12-29T06:31:48.831Z,20.7
2016-12-29T06:34:21.161Z,20.7
2016-12-29T06:36:53.688Z,20.7
2016-12-29T06:39:26.019Z,20.7
2016-12-29T06:41:58.338Z,20.7
2016-12-29T06:44:30.670Z,20.7
2016-12-29T06:47:02.991Z,20.7
2016-12-29T06:49:35.297Z,20.7
2016-12-29T06:52:07.821Z,20.7
2016-12-29T06:54:40.146Z,20.7
2016-12-29T06:57:12.481Z,20.7
2016-12-29T06:59:44.820Z,20.7
2016-12-29T07:02:17.143Z,20.7
2016-12-29T07:04:49.458Z,20.7
2016-12-29T07:07:21.766Z,20.7
2016-12-29T07:09:54.090Z,20.7
2016-12-29T07:12:26.415Z,20.7
2016-12-29T07:14:58.785Z,20.7
2016-12-29T07:17:31.119Z,20.7
2016-12-29T07:20:03.437Z,20.7
2016-12-29T07:22:35.745Z,20.7
2016-12-29T07:25:08.066Z,20.7
2016-12-29T07:27:40.390Z,20.7
2016-12-29T07:30:12.720Z,20.7
2016-12-29T07:32:45.037Z,20.7
2016-12-29T07:35:17.356Z,20.7
2016-12-29T07:37:49.659Z,20.7
2016-12-29T07:40:21.989Z,20.7
2016-12-29T07:42:54.323Z,20.7
2016-12-29T07:45:26.639Z,20.7
2016-12-29T07:47:58.951Z,20.7
2016-12-29T07:50:31.258Z,20.7
2016-12-29T07:53:03.591Z,20.7
2016-12-29T07:55:35.912Z,20.7
2016-12-29T07:58:08.249Z,20.7
2016-12-29T08:00:40.559Z,20.7
2016-12-29T08:03:12.877Z,20.7
2016-12-29T08:05:45.192Z,20.7
2016-12-29T08:08:17.533Z,20.7
2016-12-29T08:10:49.863Z,20.7
2016-12-29T08:13:22.166Z,20.7
2016-12-29T08:15:54.486Z,20.7
2016-12-29T08:18:26.823Z,20.9
2016-12-29T08:20:59.154Z,20.9
2016-12-29T08:23:31.512Z,20.8
2016-12-29T08:26:04.046Z,20.7
2016-12-29T08:28:36.380Z,20.6
2016-12-29T08:31:08.699Z,20.6
2016-12-29T08:33:41.069Z,20.5
2016-12-29T08:36:13.432Z,20.5
2016-12-29T08:38:46.045Z,20.5
2016-12-29T08:41:18.378Z,20.5
2016-12-29T08:43:50.694Z,20.5
2016-12-29T08:46:23.069Z,20.5
2016-12-29T08:48:55.388Z,20.5
2016-12-29T08:51:27.711Z,20.5
2016-12-29T08:54:00.194Z,20.6
2016-12-29T08:56:32.520Z,20.6
2016-12-29T08:59:04.843Z,20.6
2016-12-29T09:01:37.169Z,20.6
2016-12-29T09:04:09.506Z,20.6
2016-12-29T09:06:41.839Z,20.6
2016-12-29T09:09:14.183Z,20.6
2016-12-29T09:11:46.585Z,20.6
2016-12-29T09:14:18.985Z,20.6
2016-12-29T09:16:51.317Z,20.7
2016-12-29T09:19:23.636Z,20.7
2016-12-29T09:21:55.972Z,20.7
2016-12-29T09:24:28.290Z,20.7
2016-12-29T09:27:00.637Z,20.7
2016-12-29T09:29:32.976Z,20.7
2016-12-29T09:32:05.297Z,20.7
2016-12-29T09:34:37.623Z,20.7
2016-12-29T09:37:09.954Z,20.8
2016-12-29T09:39:42.276Z,20.8
2016-12-29T09:42:14.609Z,20.8
2016-12-29T09:44:46.923Z,20.8
2016-12-29T09:47:19.247Z,20.8
2016-12-29T09:49:51.571Z,20.8
2016-12-29T09:52:23.884Z,20.9
2016-12-29T09:54:56.218Z,20.9
2016-12-29T09:57:28.545Z,20.9
2016-12-29T10:00:00.860Z,20.9
2016-12-29T10:02:33.165Z,20.9
2016-12-29T10:05:05.502Z,21
2016-12-29T10:07:37.822Z,21
2016-12-29T10:10:10.407Z,20.9
2016-12-29T10:12:42.734Z,20.9
2016-12-29T10:15:15.049Z,20.9
2016-12-29T10:18:02.402Z,20.9
2016-12-29T10:20:34.715Z,20.9
2016-12-29T10:23:07.488Z,20.8
2016-12-29T10:25:40.022Z,20.7
2016-12-29T10:28:12.336Z,20.7
2016-12-29T10:30:45.396Z,20.6
2016-12-29T10:33:17.729Z,20.6
2016-12-29T10:35:50.041Z,20.5
2016-12-29T10:38:22.344Z,20.5
2016-12-29T10:40:54.661Z,20.4
2016-12-29T10:43:28.651Z,20.4
2016-12-29T10:46:01.096Z,20.4
2016-12-29T10:48:33.529Z,20.4
2016-12-29T10:51:05.857Z,20.4
2016-12-29T10:53:38.192Z,20.3
2016-12-29T10:56:10.508Z,20.2
2016-12-29T10:58:42.831Z,20.2
2016-12-29T11:01:15.163Z,20.2
2016-12-29T11:03:47.471Z,20.2
2016-12-29T11:06:19.792Z,20.2
2016-12-29T11:08:52.109Z,20.2
2016-12-29T11:11:24.449Z,20.2
2016-12-29T11:13:56.760Z,20.2
2016-12-29T11:16:29.092Z,20.2
2016-12-29T11:19:01.432Z,20.2
2016-12-29T11:21:33.760Z,20.2
2016-12-29T11:24:06.117Z,20.3
2016-12-29T11:26:38.424Z,20.3
2016-12-29T11:29:10.951Z,20.3
2016-12-29T11:31:43.270Z,20.3
2016-12-29T11:34:15.607Z,20.4
2016-12-29T11:36:47.939Z,20.4
2016-12-29T11:39:20.246Z,20.4
2016-12-29T11:41:52.586Z,20.4
2016-12-29T11:44:24.887Z,20.5
2016-12-29T11:46:57.219Z,20.5
2016-12-29T11:49:29.525Z,20.5
2016-12-29T11:52:01.845Z,20.5
2016-12-29T11:54:34.168Z,20.6
2016-12-29T11:57:06.530Z,20.6
2016-12-29T11:59:38.886Z,20.6
2016-12-29T12:02:11.228Z,20.6
2016-12-29T12:04:43.558Z,20.6
2016-12-29T12:07:15.929Z,20.7
2016-12-29T12:09:48.244Z,20.7
2016-12-29T12:12:20.578Z,20.7
2016-12-29T12:14:52.883Z,20.7
2016-12-29T12:17:25.207Z,20.7
2016-12-29T12:19:57.521Z,20.7
2016-12-29T12:22:29.857Z,20.8
2016-12-29T12:25:02.173Z,20.8
2016-12-29T12:27:34.488Z,20.8
2016-12-29T12:30:06.813Z,20.8
2016-12-29T12:32:39.126Z,20.6
2016-12-29T12:35:11.461Z,20.4
2016-12-29T12:37:43.783Z,20.2
2016-12-29T12:40:16.106Z,19.9
2016-12-29T12:42:48.437Z,19.7
2016-12-29T12:45:20.760Z,19.6
2016-12-29T12:47:53.095Z,19.7
2016-12-29T12:50:25.403Z,19.8
2016-12-29T12:52:57.699Z,19.9
2016-12-29T12:55:30.004Z,20
2016-12-29T12:58:02.305Z,20.2
2016-12-29T13:00:34.628Z,20.4
2016-12-29T13:03:06.956Z,20.6
2016-12-29T13:05:39.276Z,20.7
2016-12-29T13:08:11.581Z,20.8
2016-12-29T13:10:43.910Z,20.9
2016-12-29T13:13:16.251Z,20.9
2016-12-29T13:15:48.565Z,21
2016-12-29T13:18:20.888Z,21
2016-12-29T13:20:53.198Z,20.9
2016-12-29T13:23:25.530Z,20.9
2016-12-29T13:25:57.857Z,20.9
2016-12-29T13:28:30.188Z,20.9
2016-12-29T13:31:02.493Z,20.9
2016-12-29T13:33:34.823Z,20.9
2016-12-29T13:36:07.121Z,20.9
2016-12-29T13:38:39.424Z,20.9
2016-12-29T13:41:11.740Z,20.9
2016-12-29T13:43:44.066Z,20.9
2016-12-29T13:51:28.440Z,21.2
2016-12-29T13:54:00.802Z,21.2
2016-12-29T13:56:33.137Z,21.2
2016-12-29T13:59:05.474Z,21.4
2016-12-29T14:01:37.789Z,21.4
2016-12-29T14:04:10.112Z,21.4
2016-12-29T14:06:42.457Z,21.3
2016-12-29T14:09:14.765Z,21.3
2016-12-29T14:11:47.113Z,21.3
2016-12-29T14:14:19.428Z,21.4
2016-12-29T14:16:51.883Z,21.4
2016-12-29T14:19:24.209Z,21.4
2016-12-29T14:21:56.525Z,21.4
2016-12-29T14:24:28.871Z,21.4
2016-12-29T14:27:01.201Z,21.3
2016-12-29T14:29:33.541Z,21.3
2016-12-29T14:32:05.886Z,21.3
2016-12-29T14:34:38.218Z,21.3
2016-12-29T14:37:10.530Z,21.3
2016-12-29T14:39:42.957Z,21.3
2016-12-29T14:42:15.556Z,21.3
2016-12-29T14:44:47.930Z,21.3
2016-12-29T14:47:20.258Z,21.2
2016-12-29T14:49:52.586Z,21.2
2016-12-29T14:52:24.902Z,21.1
2016-12-29T14:54:57.236Z,21
2016-12-29T14:57:29.553Z,20.9
2016-12-29T15:00:01.872Z,20.9
2016-12-29T15:02:34.179Z,20.8
2016-12-29T15:05:06.511Z,20.7
2016-12-29T15:07:38.821Z,20.7
2016-12-29T15:10:11.124Z,20.6
2016-12-29T15:12:43.441Z,20.6
2016-12-29T15:15:15.760Z,20.5
2016-12-29T15:17:48.064Z,20.5
2016-12-29T15:20:20.622Z,20.4
2016-12-29T15:22:52.938Z,20.4
2016-12-29T15:25:25.259Z,20.4
2016-12-29T15:27:57.558Z,20.5
2016-12-29T15:30:30.227Z,20.5
2016-12-29T15:33:02.531Z,20.5
2016-12-29T15:35:34.854Z,20.6
2016-12-29T15:38:07.158Z,20.6
2016-12-29T15:40:39.490Z,20.7
2016-12-29T15:43:11.996Z,20.7
2016-12-29T15:45:44.305Z,20.8
2016-12-29T15:48:16.623Z,20.8
2016-12-29T15:50:48.947Z,20.8
2016-12-29T15:53:21.258Z,20.9
2016-12-29T15:55:53.575Z,20.9
2016-12-29T15:58:25.902Z,20.9
2016-12-29T16:00:58.213Z,20.9
2016-12-29T16:03:30.521Z,20.9
2016-12-29T16:06:02.843Z,20.9
2016-12-29T16:08:35.177Z,20.9
2016-12-29T16:11:07.509Z,20.8
2016-12-29T16:13:39.811Z,20.8
2016-12-29T16:16:12.112Z,20.8
2016-12-29T16:18:44.446Z,20.8
2016-12-29T16:21:16.765Z,20.8
2016-12-29T16:23:49.111Z,20.8
2016-12-29T16:26:21.413Z,20.8
2016-12-29T16:28:53.749Z,20.6
2016-12-29T16:31:26.075Z,20.5
2016-12-29T16:33:58.408Z,20.2
2016-12-29T16:36:30.727Z,20.2
2016-12-29T16:39:03.036Z,20.3
2016-12-29T16:41:35.344Z,20.4
2016-12-29T16:44:07.659Z,20.5
2016-12-29T16:46:39.978Z,20.5
2016-12-29T16:49:12.314Z,20.6
2016-12-29T16:51:44.652Z,20.6
2016-12-29T16:54:19.706Z,20.7
2016-12-29T16:56:52.730Z,20.8
2016-12-29T16:59:25.094Z,20.9
2016-12-29T17:01:57.423Z,20.9
2016-12-29T17:04:29.748Z,20.9
2016-12-29T17:07:02.071Z,20.9
2016-12-29T17:09:34.379Z,20.9
2016-12-29T17:12:06.710Z,20.8
2016-12-29T17:14:39.042Z,20.8
2016-12-29T17:17:11.364Z,20.8
2016-12-29T17:19:43.712Z,20.8
2016-12-29T17:22:16.027Z,20.7
2016-12-29T17:24:48.351Z,20.7
2016-12-29T17:27:20.682Z,20.7
2016-12-29T17:29:53.012Z,20.7
2016-12-29T17:32:25.322Z,20.6
2016-12-29T17:34:57.632Z,20.6
2016-12-29T17:37:29.964Z,20.6
2016-12-29T17:40:02.288Z,20.6
2016-12-29T17:42:34.618Z,20.6
2016-12-29T17:45:06.911Z,20.6
2016-12-29T17:47:39.219Z,20.5
2016-12-29T17:50:11.528Z,20.5
2016-12-29T17:52:43.856Z,20.5
2016-12-29T17:55:16.186Z,20.5
2016-12-29T17:57:48.499Z,20.5
2016-12-29T18:00:20.816Z,20.5
2016-12-29T18:02:53.150Z,20.5
2016-12-29T18:05:25.467Z,20.5
2016-12-29T18:07:57.797Z,20.5
2016-12-29T18:10:30.130Z,20.5
2016-12-29T18:13:02.447Z,20.5
2016-12-29T18:15:34.761Z,20.6
2016-12-29T18:18:07.080Z,20.6
2016-12-29T18:20:39.395Z,20.6
2016-12-29T18:23:11.725Z,20.6
2016-12-29T18:25:44.058Z,20.6
2016-12-29T18:28:16.358Z,20.6
2016-12-29T18:30:48.684Z,20.6
2016-12-29T18:33:20.994Z,20.6
2016-12-29T18:35:53.318Z,20.6
2016-12-29T18:38:25.636Z,20.6
2016-12-29T18:40:57.952Z,20.6
2016-12-29T18:43:30.291Z,20.6
2016-12-29T18:46:02.620Z,20.6
2016-12-29T18:48:34.940Z,20.5
2016-12-29T18:51:07.268Z,20.5
2016-12-29T18:53:39.596Z,20.5
2016-12-29T18:56:12.102Z,20.5
2016-12-29T18:58:44.412Z,20.5
2016-12-29T19:01:16.743Z,20.5
2016-12-29T19:03:49.066Z,20.5
2016-12-29T19:06:21.388Z,20.5
2016-12-29T19:08:53.706Z,20.5
2016-12-29T19:11:26.035Z,20.6
2016-12-29T19:13:58.377Z,20.6
2016-12-29T19:16:30.716Z,20.6
2016-12-29T19:19:03.096Z,20.6
2016-12-29T19:21:36.015Z,20.5
2016-12-29T19:24:08.433Z,20.5
2016-12-29T19:26:40.835Z,20.5
2016-12-29T19:29:13.147Z,20.6
2016-12-29T19:31:45.469Z,20.6
2016-12-29T19:34:17.788Z,20.6
2016-12-29T19:36:50.112Z,20.6
2016-12-29T19:39:22.417Z,20.6
2016-12-29T19:41:54.741Z,20.6
2016-12-29T19:44:27.064Z,20.7
2016-12-29T19:46:59.381Z,20.7
2016-12-29T19:49:31.700Z,20.7
2016-12-29T19:52:04.009Z,20.7
2016-12-29T19:54:36.319Z,20.7
2016-12-29T19:57:08.641Z,20.7
2016-12-29T19:59:40.959Z,20.7
2016-12-29T20:02:13.268Z,20.7
2016-12-29T20:04:45.568Z,20.7
2016-12-29T20:07:17.890Z,20.7
2016-12-29T20:09:50.209Z,20.7
2016-12-29T20:12:22.546Z,20.7
2016-12-29T20:14:54.847Z,20.7
2016-12-29T20:17:27.173Z,20.7
2016-12-29T20:19:59.505Z,20.7
2016-12-29T20:22:31.826Z,20.7
2016-12-29T20:25:04.145Z,20.6
2016-12-29T20:27:36.452Z,20.6
2016-12-29T20:30:08.778Z,20.6
2016-12-29T20:32:41.095Z,20.6
2016-12-29T20:35:13.396Z,20.6
2016-12-29T20:37:45.703Z,20.6
2016-12-29T20:40:18.014Z,20.5
2016-12-29T20:42:50.316Z,20.5
2016-12-29T20:45:22.632Z,20.5
2016-12-29T20:47:54.967Z,20.5
2016-12-29T20:50:27.287Z,20.5
2016-12-29T20:52:59.586Z,20.5
2016-12-29T20:55:31.925Z,20.5
2016-12-29T20:58:04.243Z,20.4
2016-12-29T21:00:36.578Z,20.4
2016-12-29T21:03:08.884Z,20.4
2016-12-29T21:05:41.211Z,20.4
2016-12-29T21:08:13.544Z,20.4
2016-12-29T21:10:45.881Z,20.4
2016-12-29T21:13:18.196Z,20.4
2016-12-29T21:15:50.514Z,20.4
2016-12-29T21:18:22.851Z,20.4
2016-12-29T21:20:55.170Z,20.4
2016-12-29T21:23:27.531Z,20.4
2016-12-29T21:25:59.848Z,20.4
2016-12-29T21:28:32.176Z,20.4
2016-12-29T21:31:04.475Z,20.4
2016-12-29T21:33:36.776Z,20.4
2016-12-29T21:36:09.106Z,20.4
2016-12-29T21:38:41.427Z,20.4
2016-12-29T21:41:13.757Z,20.4
2016-12-29T21:43:46.074Z,20.4
2016-12-29T21:46:18.384Z,20.4
2016-12-29T21:48:50.694Z,20.4
2016-12-29T21:51:23.007Z,20.4
2016-12-29T21:53:55.336Z,20.4
2016-12-29T21:56:27.640Z,20.4
2016-12-29T21:58:59.973Z,20.4
2016-12-29T22:01:32.285Z,20.4
2016-12-29T22:04:04.623Z,20.4
2016-12-29T22:06:36.933Z,20.4
2016-12-29T22:09:09.240Z,20.4
2016-12-29T22:11:41.563Z,20.4
2016-12-29T22:14:13.879Z,20.4
2016-12-29T22:16:46.194Z,20.4
2016-12-29T22:19:18.511Z,20.3
2016-12-29T22:21:50.843Z,20.3
2016-12-29T22:24:23.158Z,20.3
2016-12-29T22:26:55.478Z,20.3
2016-12-29T22:29:27.811Z,20.3
2016-12-29T22:32:00.139Z,20.3
2016-12-29T22:34:32.454Z,20.3
2016-12-29T22:37:04.789Z,20.3
2016-12-29T22:39:37.144Z,20.3
2016-12-29T22:42:09.455Z,20.3
2016-12-29T22:44:41.767Z,20.3
2016-12-29T22:47:14.091Z,20.3
2016-12-29T22:49:46.414Z,20.3
2016-12-29T22:52:18.745Z,20.3
2016-12-29T22:54:51.062Z,20.3
2016-12-29T22:57:23.379Z,20.3
2016-12-29T22:59:55.681Z,20.3
2016-12-29T23:02:28.017Z,20.3
2016-12-29T23:05:00.322Z,20.3
2016-12-29T23:07:32.876Z,20.3
2016-12-29T23:10:05.171Z,20.3
2016-12-29T23:12:37.497Z,20.3
2016-12-29T23:15:09.816Z,20.3
2016-12-29T23:17:42.144Z,20.3
2016-12-29T23:20:14.474Z,20.3
2016-12-29T23:22:46.790Z,20.3
2016-12-29T23:25:19.105Z,20.3
2016-12-29T23:27:51.423Z,20.3
2016-12-29T23:30:23.766Z,20.3
2016-12-29T23:32:56.062Z,20.4
2016-12-29T23:35:28.391Z,20.4
2016-12-29T23:38:00.715Z,20.4
2016-12-29T23:40:33.055Z,20.4
2016-12-29T23:43:05.988Z,20.4
2016-12-29T23:45:38.285Z,20.4
2016-12-29T23:48:10.601Z,20.4
2016-12-29T23:50:42.907Z,20.4
2016-12-29T23:53:15.230Z,20.4
2016-12-29T23:55:47.570Z,20.4
2016-12-29T23:58:19.888Z,20.4
